Decoded Metar for LFBO (TOULOUSE BLAGNAC in FRANCE) (IATA:TLS) | Meteo·Mobile Aviation Weather
aviador You're here:

LFBO Decoded Metar

TOULOUSE BLAGNAC in FRANCE
Report Time2019-06-19 01:00:00
UTC Time2019-06-19 01:07:34
Flight Rules mvfr MVFR
Wind260° at 05 kt
W.Decomp.*RWY 32: 2.5 kt HW 4.3 kt LCW
Visibility9999 m
Phenomena:N/A
Clouds:N/A
Expected CloudBase > 2,800 ft AGL from Temp-Dew spread
Ceiling1,100 ft
Temp19°C (ISA +5)
Dew Point12°C (64% RH)
AAT17.8°C
QNH1011 hPa
Density Alt1,345 ft
Elevation502 ft
Report Wrong Elevation
Raw Report
METAR LFBO 190100Z AUTO 26005KT 220V290 CAVOK 19/12 Q1011 BECMG
OVC011=

Extra information for LFBO:More info

Metar Taf Metar & Taf Last 4 Metars F.Rules Stats Wind Profile Meteogram Temp Stats Airport Information Weather charts Add Link Nearby VenuesMetar ALERT Operation Metar Decoded Social comments